Avoca, Illinois
Current Conditions -  °F | °C
As of 3:55 AM on Thursday 29 Jan 2015 (Local Time) from KPNT Reporting Station
Clear Clear  
Wind Chill: 31°   Ceiling: Unl
Heat Index: 36°   Visibility: 10mi
Dew Point: 32°   Wind: 6mph
Humidity: 87%   Direction: 170°S
Pressure: 29.69"   Gusts: NA
Location:  40.7318°N, 88.524°W
Report Text: KPNT 290955Z AUTO 17005KT 10SM CLR 02/00 A2969 RMK AO2 T00220002
Loading
Personal Weather Stations






























Interactive Weather Map New forecast layout! Learn more

10-Day Weather Forecast

Advertisements
Track Severe Weather on mobile